Time;durP1;ratioP1;P1;durP2;ratioP2;P2;SDS_P1;SDS_P2;PMS_P1;PMS_P2;Temp;Humidity;BMP_temperature;BMP_pressure;BME280_temperature;BME280_humidity;BME280_pressure;Samples;Min_cycle;Max_cycle;Signal;HPM_P1;HPM_P2
2022/04/26 03:36:16;;;;;;;;;;;;;;;15.12;71.57;100465.19;4736235;30;19985;-82
2022/04/26 03:39:00;;;;;;;;;;;;;;;15.16;71.27;100466.09;4734556;30;19923;-83
2022/04/26 03:41:45;;;;;;;;;;;;;;;14.99;70.75;100466.41;4752347;30;20388;-84
2022/04/26 03:44:30;;;;;;;;;;;;;;;14.99;70.39;100464.47;4745961;30;19927;-84
2022/04/26 03:47:15;;;;;;;;;;;;;;;15.03;70.36;100467.31;4752982;30;19926;-83
2022/04/26 03:49:59;;;;;;;;;;;;;;;15.02;70.30;100481.34;4755744;30;19927;-83
2022/04/26 03:52:44;;;;;;;;;;;;;;;14.98;70.50;100489.47;4764188;30;19922;-82
2022/04/26 03:55:28;;;;;;;;;;;;;;;14.95;70.54;100488.22;4751166;30;20011;-82
2022/04/26 03:58:12;;;;;;;;;;;;;;;15.11;70.41;100487.44;4737844;30;20464;-83
2022/04/26 04:00:57;;;;;;;;;;;;;;;15.13;70.50;100491.44;4738502;30;19922;-83
2022/04/26 04:03:41;;;;;;;;;;;;;;;15.16;70.87;100488.00;4739640;30;19923;-84
2022/04/26 04:06:26;;;;;;;;;;;;;;;15.21;70.75;100492.41;4739047;30;20393;-82
2022/04/26 04:09:10;;;;;;;;;;;;;;;15.16;71.11;100504.44;4740946;30;19923;-83
2022/04/26 04:11:55;;;;;;;;;;;;;;;15.23;71.08;100509.31;4756871;30;19927;-82
2022/04/26 04:14:39;;;;;;;;;;;;;;;15.11;71.60;100518.38;4740230;30;19922;-82
2022/04/26 04:17:23;;;;;;;;;;;;;;;15.13;71.77;100513.34;4754922;30;19922;-82
2022/04/26 04:20:08;;;;;;;;;;;;;;;15.15;72.02;100513.78;4753242;30;19922;-82
2022/04/26 04:22:55;;;;;;;;;;;;;;;15.16;72.39;100523.59;4764730;24;19923;-80
2022/04/26 04:25:41;;;;;;;;;;;;;;;15.18;71.86;100524.06;4755787;30;20320;-82
2022/04/26 04:28:25;;;;;;;;;;;;;;;15.15;71.84;100530.22;4772559;30;19922;-82
2022/04/26 04:31:10;;;;;;;;;;;;;;;15.17;71.97;100529.88;4758273;30;19922;-82
2022/04/26 04:33:55;;;;;;;;;;;;;;;15.21;71.58;100523.34;4754779;30;19930;-82
2022/04/26 04:36:39;;;;;;;;;;;;;;;15.19;71.47;100527.56;4739270;30;19930;-82
2022/04/26 04:39:24;;;;;;;;;;;;;;;15.18;71.43;100528.75;4740798;30;19945;-82
2022/04/26 04:42:08;;;;;;;;;;;;;;;15.24;71.00;100533.59;4730749;30;19927;-82
2022/04/26 04:44:53;;;;;;;;;;;;;;;15.25;70.98;100531.66;4751695;30;19931;-81
2022/04/26 04:47:38;;;;;;;;;;;;;;;15.25;71.22;100540.66;4739065;30;20381;-81
2022/04/26 04:50:23;;;;;;;;;;;;;;;15.18;71.03;100540.50;4738607;30;20381;-81
2022/04/26 04:53:07;;;;;;;;;;;;;;;15.17;71.57;100547.13;4735838;30;19922;-81
2022/04/26 04:55:52;;;;;;;;;;;;;;;15.16;72.11;100548.25;4754424;30;19922;-82
2022/04/26 04:58:38;;;;;;;;;;;;;;;15.08;72.26;100546.47;4733217;30;19923;-81
2022/04/26 05:01:22;;;;;;;;;;;;;;;15.07;72.13;100550.34;4737167;30;20384;-81
2022/04/26 05:04:07;;;;;;;;;;;;;;;15.09;72.71;100550.78;4752186;30;19923;-82
2022/04/26 05:06:51;;;;;;;;;;;;;;;15.15;71.74;100556.81;4738798;30;19927;-81
2022/04/26 05:09:37;;;;;;;;;;;;;;;15.15;70.90;100552.13;4734732;30;19926;-81
2022/04/26 05:12:21;;;;;;;;;;;;;;;15.19;70.75;100549.47;4739477;30;20396;-82
2022/04/26 05:15:07;;;;;;;;;;;;;;;15.27;70.70;100549.34;4751429;30;19922;-84
2022/04/26 05:17:52;;;;;;;;;;;;;;;15.19;70.83;100554.97;4739523;30;19922;-84
2022/04/26 05:20:36;;;;;;;;;;;;;;;15.22;71.03;100557.81;4737688;30;20307;-83
2022/04/26 05:26:23;;;;;;;;;;;;;;;15.16;71.71;100566.63;4755196;30;19930;-85
2022/04/26 05:29:08;;;;;;;;;;;;;;;15.07;71.82;100566.78;4752635;30;19922;-84
2022/04/26 05:31:54;;;;;;;;;;;;;;;15.16;71.84;100564.69;4735161;30;19927;-82
2022/04/26 05:34:39;;;;;;;;;;;;;;;15.06;72.28;100565.19;4746362;30;19923;-82
2022/04/26 05:37:23;;;;;;;;;;;;;;;15.05;72.68;100571.81;4735496;30;19923;-81
2022/04/26 05:40:08;;;;;;;;;;;;;;;15.05;72.83;100571.81;4738440;30;19923;-83
2022/04/26 05:42:52;;;;;;;;;;;;;;;15.06;73.08;100565.19;4751111;30;19930;-83
2022/04/26 05:45:37;;;;;;;;;;;;;;;15.09;73.25;100575.44;4734475;30;19927;-84
2022/04/26 05:48:22;;;;;;;;;;;;;;;15.07;73.10;100582.44;4738811;30;19923;-83
2022/04/26 05:51:07;;;;;;;;;;;;;;;15.14;72.41;100577.94;4724514;30;19923;-82
2022/04/26 05:53:52;;;;;;;;;;;;;;;15.14;72.45;100577.94;4720863;30;19926;-81
2022/04/26 05:56:37;;;;;;;;;;;;;;;15.21;72.28;100575.41;4720911;30;19923;-82
2022/04/26 05:59:21;;;;;;;;;;;;;;;15.22;72.02;100587.94;4719673;30;20394;-84
2022/04/26 06:02:06;;;;;;;;;;;;;;;15.17;72.64;100582.72;4738146;30;19922;-82
2022/04/26 06:04:50;;;;;;;;;;;;;;;15.23;72.31;100581.34;4750722;30;19927;-82
2022/04/26 06:07:35;;;;;;;;;;;;;;;15.19;72.16;100585.09;4738977;30;19927;-82
2022/04/26 06:10:19;;;;;;;;;;;;;;;15.21;72.31;100588.28;4735532;30;19922;-83
2022/04/26 06:13:04;;;;;;;;;;;;;;;15.23;72.20;100581.34;4736879;30;19923;-83
2022/04/26 06:15:48;;;;;;;;;;;;;;;15.23;71.50;100586.00;4750143;30;19923;-83
2022/04/26 06:18:33;;;;;;;;;;;;;;;15.29;71.22;100590.06;4738391;30;19923;-85
2022/04/26 06:21:18;;;;;;;;;;;;;;;15.27;70.91;100589.63;4736991;30;19922;-83
2022/04/26 06:24:02;;;;;;;;;;;;;;;15.17;71.35;100588.22;4738041;30;19922;-83
2022/04/26 06:26:46;;;;;;;;;;;;;;;15.10;71.88;100595.41;4750987;30;19927;-83
2022/04/26 06:29:31;;;;;;;;;;;;;;;15.17;71.87;100599.16;4739455;30;19922;-83
2022/04/26 06:32:15;;;;;;;;;;;;;;;15.19;72.39;100605.06;4751861;30;19923;-83
2022/04/26 06:35:00;;;;;;;;;;;;;;;15.23;72.65;100600.50;4737021;30;19922;-83
2022/04/26 06:37:44;;;;;;;;;;;;;;;15.20;72.61;100612.16;4736726;30;19926;-83
2022/04/26 06:40:29;;;;;;;;;;;;;;;15.38;71.96;100602.50;4750922;30;20385;-84
2022/04/26 06:43:14;;;;;;;;;;;;;;;15.33;72.15;100597.28;4741463;30;19923;-82
2022/04/26 06:45:59;;;;;;;;;;;;;;;15.27;72.60;100606.09;4741234;30;19927;-82
2022/04/26 06:48:48;;;;;;;;;;;;;;;15.21;73.02;100605.53;4742211;30;19927;-82
2022/04/26 06:51:35;;;;;;;;;;;;;;;15.14;73.32;100605.31;4741299;30;19938;-82
2022/04/26 06:54:19;;;;;;;;;;;;;;;15.37;71.74;100602.84;4748842;30;19922;-84
2022/04/26 06:57:04;;;;;;;;;;;;;;;15.38;72.08;100598.97;4761772;30;19923;-86
2022/04/26 06:59:49;;;;;;;;;;;;;;;15.43;71.93;100606.94;4765914;30;19922;-85
2022/04/26 07:02:34;;;;;;;;;;;;;;;15.56;71.98;100593.97;4764797;30;19926;-84
2022/04/26 07:05:19;;;;;;;;;;;;;;;15.69;72.02;100606.47;4754322;30;19927;-85
2022/04/26 07:08:04;;;;;;;;;;;;;;;15.69;71.48;100601.00;4734726;30;20434;-85
2022/04/26 07:10:48;;;;;;;;;;;;;;;15.86;70.79;100597.88;4751548;30;19922;-86
2022/04/26 07:13:32;;;;;;;;;;;;;;;15.89;70.62;100601.88;4749868;30;19923;-85
2022/04/26 07:16:17;;;;;;;;;;;;;;;15.95;71.07;100598.50;4744520;30;20315;-84
2022/04/26 07:19:01;;;;;;;;;;;;;;;15.92;71.13;100593.75;4763589;30;19922;-84
2022/04/26 07:21:47;;;;;;;;;;;;;;;16.10;70.45;100597.69;4748556;30;20388;-84
2022/04/26 07:24:32;;;;;;;;;;;;;;;16.31;68.75;100597.41;4745717;30;19976;-85
2022/04/26 07:27:18;;;;;;;;;;;;;;;16.52;68.20;100597.13;4749970;30;19927;-84
2022/04/26 07:30:04;;;;;;;;;;;;;;;16.91;66.67;100596.06;4754535;30;19923;-86
2022/04/26 07:35:54;;;;;;;10.82;7.40;;;;;;;17.04;64.05;100597.50;4745492;30;20417;-83
2022/04/26 07:38:39;;;;;;;9.98;7.53;;;;;;;16.91;64.46;100593.31;4740923;30;20051;-87
2022/04/26 07:41:24;;;;;;;9.32;7.40;;;;;;;16.72;65.11;100595.22;4743154;30;20057;-84
2022/04/26 07:44:09;;;;;;;;;;;;;;;16.64;65.16;100603.31;4742351;30;20530;-81
2022/04/26 07:46:54;;;;;;;6.05;5.07;;;;;;;16.63;64.44;100598.97;4742048;30;19922;-82
2022/04/26 07:49:40;;;;;;;4.93;4.35;;;;;;;17.04;63.48;100592.00;4741384;30;20059;-81
2022/04/26 07:52:28;;;;;;;5.88;4.53;;;;;;;17.36;61.46;100592.66;4755941;30;20084;-80
2022/04/26 07:55:13;;;;;;;7.88;4.00;;;;;;;17.74;61.00;100602.00;4742547;30;20051;-81
2022/04/26 07:58:00;;;;;;;;;;;;;;;17.82;60.39;100604.53;4741643;30;20064;-80
2022/04/26 08:00:45;;;;;;;6.07;3.70;;;;;;;17.84;60.15;100609.63;4744265;30;19922;-81
2022/04/26 08:03:32;;;;;;;3.83;3.38;;;;;;;17.45;60.84;100611.66;4739451;30;20052;-81
2022/04/26 08:06:16;;;;;;;;;;;;;;;17.14;60.50;100622.81;4739080;30;20047;-81
2022/04/26 08:09:01;;;;;;;;;;;;;;;16.95;62.10;100613.41;4741148;30;19919;-81
2022/04/26 08:11:46;;;;;;;;;;;;;;;16.97;61.96;100613.84;4754699;30;19922;-81
2022/04/26 08:14:30;;;;;;;;;;;;;;;16.46;63.12;100615.00;4736624;30;19918;-81
2022/04/26 08:17:15;;;;;;;;;;;;;;;16.78;61.86;100622.06;4740317;30;19922;-81
2022/04/26 08:19:59;;;;;;;;;;;;;;;16.76;61.25;100621.59;4754157;30;19918;-81
2022/04/26 08:22:44;;;;;;;;;;;;;;;16.98;60.75;100623.66;4739575;30;19918;-81
2022/04/26 08:28:33;;;;;;;;;;;;;;;16.44;61.90;100622.81;4751111;30;19918;-81
2022/04/26 08:31:17;;;;;;;;;;;;;;;16.79;61.51;100623.66;4747272;30;19918;-81
2022/04/26 08:34:02;;;;;;;;;;;;;;;16.95;60.67;100624.41;4755960;30;19918;-81
2022/04/26 08:36:47;;;;;;;;;;;;;;;17.20;61.06;100624.91;4743083;30;19918;-81
2022/04/26 08:39:31;;;;;;;;;;;;;;;17.31;60.15;100628.69;4754628;30;19918;-81
2022/04/26 08:42:16;;;;;;;;;;;;;;;17.23;60.52;100628.88;4741291;30;20303;-81
2022/04/26 08:45:00;;;;;;;;;;;;;;;17.37;59.41;100629.19;4746304;30;19922;-81
2022/04/26 08:51:03;;;;;;;;;;;;;;;16.95;60.91;100642.84;4743762;30;19918;-81
2022/04/26 08:53:48;;;;;;;;;;;;;;;16.87;60.79;100633.63;4740676;30;20415;-81
2022/04/26 08:56:32;;;;;;;;;;;;;;;16.72;61.58;100637.22;4745006;30;19918;-81
2022/04/26 08:59:18;;;;;;;;;;;;;;;16.81;60.36;100642.53;4755841;30;19918;-81
2022/04/26 09:02:15;;;;;;;;;;;;;;;16.98;60.86;100631.09;4753583;30;20293;-81
2022/04/26 09:05:01;;;;;;;;;;;;;;;17.25;60.31;100638.38;4740149;30;19918;-81
2022/04/26 09:07:47;;;;;;;;;;;;;;;17.06;60.43;100638.38;4742962;30;20235;-81
2022/04/26 09:10:32;;;;;;;;;;;;;;;16.79;61.15;100634.63;4741429;30;19918;-81
2022/04/26 09:13:20;;;;;;;;;;;;;;;16.79;61.64;100634.63;4740696;30;19919;-81
2022/04/26 09:16:14;;;;;;;;;;;;;;;16.89;61.20;100639.56;4735630;30;19922;-81
2022/04/26 09:19:00;;;;;;;;;;;;;;;16.64;61.45;100649.19;4747480;30;19918;-81
2022/04/26 09:21:53;;;;;;;;;;;;;;;16.42;61.74;100644.31;4739676;30;19919;-81
2022/04/26 09:24:56;;;;;;;;;;;;;;;16.61;62.52;100633.44;4740193;30;19918;-81
2022/04/26 09:27:42;;;;;;;;;;;;;;;16.54;61.09;100634.03;4739000;30;19923;-81
2022/04/26 09:30:28;;;;;;;;;;;;;;;16.80;61.01;100638.97;4742908;30;19944;-81
2022/04/26 09:33:47;;;;;;;;;;;;;;;17.27;59.58;100638.78;4735012;30;20392;-81
2022/04/26 09:36:35;;;;;;;;;;;;;;;17.35;59.83;100642.47;4739817;30;20381;-81
2022/04/26 09:39:21;;;;;;;;;;;;;;;17.50;58.90;100636.91;4753611;30;19919;-81
2022/04/26 09:42:06;;;;;;;;;;;;;;;17.50;59.59;100636.91;4741037;30;19922;-81
2022/04/26 09:45:02;;;;;;;;;;;;;;;17.82;59.34;100636.75;4752827;30;20350;-81
2022/04/26 09:47:47;;;;;;;;;;;;;;;17.77;58.74;100635.09;4751138;30;19922;-81
2022/04/26 09:50:33;;;;;;;;;;;;;;;17.91;57.35;100634.53;4735446;30;19918;-81
2022/04/26 09:53:18;;;;;;;;;;;;;;;18.17;57.88;100631.84;4740082;30;19918;-81
2022/04/26 09:56:04;;;;;;;;;;;;;;;18.17;57.25;100634.59;4746199;30;20337;-84
2022/04/26 09:58:49;;;;;;;;;;;;;;;18.42;56.51;100637.75;4736816;30;19927;-82
2022/04/26 10:01:41;;;;;;;;;;;;;;;18.24;56.02;100631.94;4754494;30;19922;-82
2022/04/26 10:04:30;;;;;;;;;;;;;;;18.16;56.82;100629.44;4731478;30;19930;-83
2022/04/26 10:07:17;;;;;;;;;;;;;;;19.02;55.25;100626.81;4735075;30;19930;-82
2022/04/26 10:10:03;;;;;;;;;;;;;;;20.19;51.06;100630.84;4743576;30;19926;-82
2022/04/26 10:15:52;;;;;;;;;;;;;;;20.04;51.00;100627.16;4751885;30;19926;-82
2022/04/26 10:18:38;;;;;;;;;;;;;;;21.01;48.76;100619.16;4742967;30;19922;-82
2022/04/26 10:21:22;;;;;;;;;;;;;;;19.01;53.09;100620.50;4742467;30;19922;-82
2022/04/26 10:24:11;;;;;;;;;;;;;;;18.55;55.86;100622.63;4739435;30;19923;-83
2022/04/26 10:27:15;;;;;;;;;;;;;;;18.76;54.65;100620.16;4740057;30;19927;-82
2022/04/26 10:30:00;;;;;;;;;;;;;;;19.60;53.01;100619.66;4739985;30;19926;-82
2022/04/26 10:32:44;;;;;;;;;;;;;;;19.62;52.99;100614.53;4753455;30;19923;-82
2022/04/26 10:35:29;;;;;;;;;;;;;;;19.97;51.76;100610.53;4754377;30;20380;-82
2022/04/26 10:38:16;;;;;;;;;;;;;;;19.64;51.71;100617.72;4740677;30;19922;-82
2022/04/26 10:41:00;;;;;;;;;;;;;;;19.75;51.83;100615.06;4740024;30;19922;-83
2022/04/26 10:44:05;;;;;;;;;;;;;;;19.10;54.03;100617.44;4741831;30;19922;-82
2022/04/26 10:46:52;;;;;;;;;;;;;;;19.27;53.58;100619.63;4738425;30;19922;-82
2022/04/26 10:49:38;;;;;;;;;;;;;;;19.34;53.99;100613.41;4743884;30;19927;-81
2022/04/26 10:52:25;;;;;;;;;;;;;;;18.91;54.53;100621.16;4749039;30;19931;-82
2022/04/26 10:55:12;;;;;;;;;;;;;;;18.64;55.65;100616.88;4739461;30;19923;-81
2022/04/26 10:57:57;;;;;;;;;;;;;;;18.01;56.95;100609.16;4742413;30;19926;-82
2022/04/26 11:00:44;;;;;;;;;;;;;;;17.55;59.21;100611.06;4736133;30;19922;-81
2022/04/26 11:03:29;;;;;;;;;;;;;;;17.68;58.99;100603.44;4744648;30;19923;-81
2022/04/26 11:06:30;;;;;;;;;;;;;;;17.65;59.59;100602.25;4750292;30;20314;-82
2022/04/26 11:09:16;;;;;;;;;;;;;;;17.49;59.51;100599.56;4743457;30;19931;-82
2022/04/26 11:12:02;;;;;;;;;;;;;;;17.54;58.85;100603.97;4738307;30;19923;-81
2022/04/26 11:14:48;;;;;;;;;;;;;;;17.44;59.57;100602.59;4753813;30;19927;-82
2022/04/26 11:17:34;;;;;;;;;;;;;;;17.97;57.28;100602.81;4754064;30;19923;-82
2022/04/26 11:20:20;;;;;;;;;;;;;;;18.05;57.16;100600.94;4755159;30;19922;-82
2022/04/26 11:27:59;;;;;;;;;;;;;;;17.99;57.14;100603.22;4755367;30;19923;-82
2022/04/26 11:29:24;;;;;;;;;;;;;;;18.85;56.26;100597.03;4745803;30;19926;-83
2022/04/26 11:32:26;;;;;;;;;;;;;;;18.98;54.31;100601.97;4753853;30;19922;-82
2022/04/26 11:35:13;;;;;;;;;;;;;;;19.61;52.68;100593.63;4738351;30;19923;-82
2022/04/26 11:38:03;;;;;;;;;;;;;;;20.22;51.39;100594.94;4758714;30;19930;-82
2022/04/26 11:40:52;;;;;;;;;;;;;;;19.71;51.86;100588.63;4740663;30;19922;-82
2022/04/26 11:43:37;;;;;;;;;;;;;;;19.54;50.41;100582.56;4745143;30;19927;-84
2022/04/26 11:46:22;;;;;;;;;;;;;;;19.23;52.57;100586.53;4741776;30;20312;-82
2022/04/26 11:49:08;;;;;;;;;;;;;;;18.59;54.18;100586.88;4757570;30;20324;-82
2022/04/26 11:52:00;;;;;;;;;;;;;;;18.82;53.02;100586.78;4741158;30;19926;-82
2022/04/26 11:54:44;;;;;;;;;;;;;;;18.76;54.38;100578.06;4736868;30;19930;-83
2022/04/26 11:57:29;;;;;;;;;;;;;;;18.68;54.91;100581.88;4741350;30;20380;-82
2022/04/26 12:00:15;;;;;;;;;;;;;;;18.52;55.19;100582.03;4750796;30;20332;-81
2022/04/26 12:03:00;;;;;;;;;;;;;;;18.61;55.38;100584.53;4745878;30;19923;-82
2022/04/26 12:05:49;;;;;;;;;;;;;;;18.44;56.11;100583.06;4746335;30;19923;-82
2022/04/26 12:08:36;;;;;;;;;;;;;;;18.57;54.88;100584.50;4740096;30;20451;-82
2022/04/26 12:11:23;;;;;;;;;;;;;;;18.82;55.16;100573.00;4757837;30;19926;-82
2022/04/26 12:14:11;;;;;;;;;;;;;;;18.71;55.64;100578.38;4743897;30;19922;-82
2022/04/26 12:16:56;;;;;;;;;;;;;;;18.62;55.33;100573.16;4743922;30;19930;-84
2022/04/26 12:19:41;;;;;;;;;;;;;;;19.45;53.17;100564.72;4742901;30;19922;-83
2022/04/26 12:22:36;;;;;;;;;;;;;;;19.98;52.10;100567.97;4747157;30;19923;-83
2022/04/26 12:25:21;;;;;;;;;;;;;;;20.44;49.18;100544.25;4745876;30;19922;-82
2022/04/26 12:28:07;;;;;;;;;;;;;;;20.26;50.68;100557.13;4742828;30;20327;-82
2022/04/26 12:30:52;;;;;;;;;;;;;;;20.71;49.31;100550.31;4743723;30;19926;-82
2022/04/26 12:33:37;;;;;;;;;;;;;;;23.30;43.77;100562.16;4756233;30;19923;-82
2022/04/26 12:36:21;;;;;;;;;;;;;;;23.46;42.36;100553.34;4746413;30;19923;-82
2022/04/26 12:39:06;;;;;;;;;;;;;;;22.88;42.21;100546.50;4739188;30;20178;-83
2022/04/26 12:44:52;;;;;;;;;;;;;;;21.46;45.49;100539.50;4698169;30;19931;-73
2022/04/26 12:50:40;;;;;;;;;;;;;;;20.41;48.90;100527.66;4699615;30;19923;-72
2022/04/26 12:53:26;;;;;;;;;;;;;;;19.99;49.55;100525.38;4699803;30;20300;-73
2022/04/26 12:56:11;;;;;;;;;;;;;;;19.31;50.39;100512.13;4700387;30;19923;-73
2022/04/26 12:58:56;;;;;;;;;;;;;;;19.08;51.82;100512.31;4700293;30;19923;-73
2022/04/26 13:01:41;;;;;;;;;;;;;;;19.09;52.45;100513.91;4700311;30;19923;-73
2022/04/26 13:04:25;;;;;;;;;;;;;;;19.00;52.91;100513.38;4700427;30;19923;-72
2022/04/26 13:07:10;;;;;;;;;;;;;;;18.83;54.20;100514.00;4698992;30;19927;-72
2022/04/26 13:09:54;;;;;;;;;;;;;;;18.65;55.29;100513.75;4702538;30;20300;-73
2022/04/26 13:12:39;;;;;;;;;;;;;;;18.53;57.96;100512.03;4710753;30;19927;-73
2022/04/26 13:15:24;;;;;;;;;;;;;;;18.20;60.64;100509.19;4713448;30;19923;-73
2022/04/26 13:18:10;;;;;;;;;;;;;;;17.86;63.19;100514.59;4715648;30;19927;-73
2022/04/26 13:20:55;;;;;;;;;;;;;;;17.45;65.69;100496.19;4699617;30;19924;-73
2022/04/26 13:23:41;;;;;;;;;;;;;;;16.96;67.68;100491.38;4698935;30;19923;-73
2022/04/26 13:26:26;;;;;;;;;;;;;;;16.45;69.65;100492.66;4698290;30;19927;-74
2022/04/26 13:29:10;;;;;;;;;;;;;;;16.39;69.12;100488.59;4698868;30;19923;-73
2022/04/26 13:31:58;;;;;;;;;;;;;;;16.22;69.56;100509.81;4712361;30;19927;-73
2022/04/26 13:34:44;;;;;;;;;;;;;;;16.26;68.58;100518.91;4699648;30;19923;-72
2022/04/26 13:37:28;;;;;;;;;;;;;;;16.04;69.20;100527.03;4699871;30;20165;-72
2022/04/26 14:07:05;;;;;;;;;;;;;;;15.47;73.56;100524.78;4696058;30;20528;-73
2022/04/26 14:09:50;;;;;;;;;;;;;;;15.55;72.81;100518.38;4697167;30;19923;-73
2022/04/26 14:12:34;;;;;;;;;;;;;;;15.35;73.67;100520.97;4698575;30;19923;-73
2022/04/26 14:24:29;;;;;;;;;;;;;;;16.14;70.00;100537.44;4686528;30;19923;-72
2022/04/26 14:27:14;;;;;;;;;;;;;;;16.21;69.27;100524.69;4693847;30;20365;-71
2022/04/26 14:29:59;;;;;;;;;;;;;;;16.11;70.66;100518.94;4694720;30;19923;-74
2022/04/26 14:32:45;;;;;;;;;;;;;;;16.06;71.16;100520.00;4694703;30;20337;-72
2022/04/26 14:35:31;;;;;;;;;;;;;;;16.07;70.37;100524.34;4709697;30;19927;-73
2022/04/26 14:38:16;;;;;;;;;;;;;;;16.52;68.90;100521.03;4695401;30;19923;-72
2022/04/26 14:41:01;;;;;;;;;;;;;;;17.05;67.04;100507.63;4697334;30;19931;-72
2022/04/26 14:43:46;;;;;;;;;;;;;;;17.76;64.96;100508.91;4696805;30;19923;-72
2022/04/26 14:46:30;;;;;;;;;;;;;;;17.96;63.33;100499.41;4698572;30;19927;-72
2022/04/26 14:49:15;;;;;;;;;;;;;;;18.15;62.71;100493.00;4693999;30;19923;-72
2022/04/26 14:51:59;;;;;;;;;;;;;;;17.99;61.59;100489.59;4696416;30;20300;-72
2022/04/26 14:54:44;;;;;;;;;;;;;;;17.87;61.62;100488.69;4698596;30;19923;-72
2022/04/26 14:57:28;;;;;;;;;;;;;;;18.00;61.66;100483.75;4712610;30;19923;-72
2022/04/26 15:00:14;;;;;;;;;;;;;;;18.09;61.50;100486.22;4697583;30;19935;-72
2022/04/26 15:02:58;;;;;;;;;;;;;;;18.37;60.12;100475.63;4711692;30;19927;-72
2022/04/26 15:05:43;;;;;;;;;;;;;;;18.37;60.92;100473.66;4700308;30;19923;-72
2022/04/26 15:11:32;;;;;;;;;;;;;;;17.83;62.30;100468.53;4712178;30;19923;-72
2022/04/26 15:17:20;;;;;;;;;;;;;;;17.93;61.68;100470.66;4701014;30;19927;-74
2022/04/26 15:20:05;;;;;;;;;;;;;;;17.81;59.68;100470.09;4700648;30;19964;-72
2022/04/26 15:22:49;;;;;;;;;;;;;;;17.94;61.14;100465.97;4700170;30;19923;-71
2022/04/26 15:25:35;;;;;;;;;;;;;;;18.14;60.38;100466.63;4702191;30;19923;-73
2022/04/26 15:28:21;;;;;;;;;;;;;;;18.23;59.90;100472.69;4716875;30;19927;-73
2022/04/26 15:31:06;;;;;;;;;;;;;;;18.28;59.68;100472.34;4701342;30;19923;-73
2022/04/26 15:33:51;;;;;;;;;;;;;;;18.35;59.47;100462.22;4701401;30;19923;-73
2022/04/26 15:36:36;;;;;;;;;;;;;;;18.43;59.70;100459.56;4688597;30;19927;-72
2022/04/26 15:39:20;;;;;;;;;;;;;;;18.24;55.12;100454.97;4720068;30;19927;-72
2022/04/26 15:42:04;;;;;;;;;;;;;;;18.34;57.22;100454.31;4713829;30;19927;-72
2022/04/26 15:44:49;;;;;;;;;;;;;;;18.37;57.80;100457.13;4701138;30;19923;-73
2022/04/26 15:47:35;;;;;;;;;;;;;;;18.30;56.26;100448.78;4701139;30;20300;-73
2022/04/26 15:50:19;;;;;;;;;;;;;;;18.25;53.86;100454.59;4700691;30;20116;-73
2022/04/26 15:53:04;;;;;;;;;;;;;;;18.21;55.33;100451.03;4717069;30;19923;-73
2022/04/26 15:55:49;;;;;;;;;;;;;;;18.02;55.11;100450.34;4698936;30;20388;-73
2022/04/26 15:58:34;;;;;;;;;;;;;;;17.67;58.33;100445.94;4699798;30;19924;-73
2022/04/26 16:01:18;;;;;;;;;;;;;;;17.70;60.37;100445.19;4700254;30;20361;-73
2022/04/26 16:04:04;;;;;;;;;;;;;;;17.65;60.47;100441.94;4701205;30;20381;-72
2022/04/26 16:06:48;;;;;;;;;;;;;;;17.69;60.64;100440.03;4700163;30;19927;-72
2022/04/26 16:21:46;;;;;;;;;;;;;;;17.68;58.88;100428.22;4712568;30;19923;-71
2022/04/26 16:24:36;;;;;;;;;;;;;;;17.55;59.53;100426.84;4700155;30;19923;-72
2022/04/26 16:27:20;;;;;;;;;;;;;;;17.77;59.08;100428.78;4695854;30;19927;-72
2022/04/26 16:30:05;;;;;;;;;;;;;;;17.76;59.30;100435.44;4696936;30;19942;-71
2022/04/26 16:32:50;;;;;;;;;;;;;;;17.57;58.41;100432.78;4700115;30;19927;-72
2022/04/26 16:35:34;;;;;;;;;;;;;;;17.74;59.22;100434.22;4699837;30;19923;-73
2022/04/26 16:38:20;;;;;;;;;;;;;;;17.68;60.52;100431.00;4700296;30;19931;-73
2022/04/26 16:41:06;;;;;;;;;;;;;;;17.69;60.80;100434.53;4699875;30;19923;-73
2022/04/26 16:43:50;;;;;;;;;;;;;;;17.65;60.58;100440.00;4701770;30;19927;-73
2022/04/26 16:46:36;;;;;;;;;;;;;;;17.51;59.69;100440.53;4700261;30;19923;-73
2022/04/26 16:49:21;;;;;;;;;;;;;;;17.65;59.25;100439.19;4699313;30;19935;-73
2022/04/26 16:52:06;;;;;;;;;;;;;;;17.50;61.14;100441.69;4704695;30;19923;-73
2022/04/26 16:54:51;;;;;;;;;;;;;;;17.42;61.11;100437.22;4713623;30;19927;-73
2022/04/26 16:57:35;;;;;;;;;;;;;;;17.47;61.98;100433.41;4711221;30;19923;-73
2022/04/26 17:00:20;;;;;;;;;;;;;;;17.36;62.29;100437.91;4707753;30;19927;-73
2022/04/26 17:03:04;;;;;;;;;;;;;;;17.32;61.67;100442.56;4712767;30;20380;-73
2022/04/26 17:05:49;;;;;;;;;;;;;;;17.29;62.04;100441.34;4697224;30;19923;-73
2022/04/26 17:08:34;;;;;;;;;;;;;;;17.19;61.89;100435.66;4706573;30;19927;-74
2022/04/26 17:14:34;;;;;;;;;;;;;;;16.97;63.37;100442.72;4694146;30;20304;-74
2022/04/26 17:17:18;;;;;;;;;;;;;;;16.88;64.62;100440.22;4711685;30;20868;-72
2022/04/26 17:20:04;;;;;;;;;;;;;;;16.76;65.31;100443.09;4696739;30;19923;-72
2022/04/26 17:22:48;;;;;;;;;;;;;;;16.67;65.36;100437.84;4696943;30;19923;-73
2022/04/26 17:25:34;;;;;;;;;;;;;;;16.56;66.19;100434.06;4701019;30;20592;-72
2022/04/26 17:28:22;;;;;;;;;;;;;;;16.45;67.81;100444.06;4713362;30;19927;-72
2022/04/26 17:31:07;;;;;;;;;;;;;;;16.45;68.31;100437.78;4695366;30;19923;-73
2022/04/26 17:33:54;;;;;;;;;;;;;;;16.37;68.31;100441.50;4699637;30;19923;-74
2022/04/26 17:36:41;;;;;;;;;;;;;;;16.33;68.25;100446.94;4697093;30;19923;-73
2022/04/26 17:39:25;;;;;;;;;;;;;;;16.29;68.81;100446.06;4693701;30;20300;-72
2022/04/26 17:42:10;;;;;;;;;;;;;;;16.16;70.38;100448.13;4695232;30;19923;-73
2022/04/26 17:44:56;;;;;;;;;;;;;;;16.11;70.94;100453.91;4703192;30;19954;-73
2022/04/26 17:47:41;;;;;;;;;;;;;;;16.11;70.70;100455.84;4699137;30;19931;-73
2022/04/26 17:50:27;;;;;;;;;;;;;;;16.09;69.48;100455.44;4707594;30;20381;-73
2022/04/26 17:56:28;;;;;;;;;;;;;;;15.90;70.11;100467.13;4698534;30;19935;-69
2022/04/26 17:59:13;;;;;;;;;;;;;;;15.88;70.56;100472.19;4696678;30;19923;-70
2022/04/26 18:01:57;;;;;;;;;;;;;;;15.73;71.88;100473.00;4697375;30;20301;-71
2022/04/26 18:04:42;;;;;;;;;;;;;;;15.74;71.95;100478.16;4710591;30;19931;-71
2022/04/26 18:07:26;;;;;;;;;;;;;;;15.47;73.59;100486.44;4696037;30;19928;-71
2022/04/26 18:10:10;;;;;;;;;;;;;;;15.44;73.68;100500.84;4713294;30;19923;-71
2022/04/26 18:12:55;;;;;;;;;;;;;;;15.29;74.56;100492.25;4694290;30;19927;-71
2022/04/26 18:15:40;;;;;;;;;;;;;;;15.18;75.59;100493.94;4697997;30;20401;-69
2022/04/26 18:18:25;;;;;;;;;;;;;;;15.13;76.04;100502.41;4697142;30;19935;-71
2022/04/26 18:21:10;;;;;;;;;;;;;;;15.04;76.95;100496.25;4698011;30;19923;-69
2022/04/26 18:23:55;;;;;;;;;;;;;;;15.00;77.43;100511.81;4713676;30;19927;-71
2022/04/26 18:26:40;;;;;;;;;;;;;;;15.17;75.72;100510.72;4695388;30;19923;-69
2022/04/26 18:29:25;;;;;;;;;;;;;;;15.13;75.81;100518.84;4696953;30;19923;-69
2022/04/26 18:32:09;;;;;;;;;;;;;;;15.14;75.23;100519.59;4697611;30;19927;-69
2022/04/26 18:34:56;;;;;;;;;;;;;;;15.10;75.20;100527.75;4695946;30;19931;-69
2022/04/26 18:37:40;;;;;;;;;;;;;;;15.01;76.08;100526.31;4694602;30;19927;-69
2022/04/26 18:40:25;;;;;;;;;;;;;;;14.95;76.20;100537.50;4698252;30;19924;-70
2022/04/26 18:43:09;;;;;;;;;;;;;;;14.97;76.58;100535.22;4696432;30;19931;-69
2022/04/26 18:45:55;;;;;;;;;;;;;;;14.94;76.62;100555.06;4697767;30;19927;-69
2022/04/26 18:48:41;;;;;;;;;;;;;;;15.08;75.67;100551.97;4695862;30;19927;-69
2022/04/26 18:51:26;;;;;;;;;;;;;;;14.87;76.21;100554.09;4742849;24;19930;-79
2022/04/26 18:54:10;;;;;;;;;;;;;;;14.83;76.82;100562.19;4741029;30;19926;-79
2022/04/26 18:56:55;;;;;;;;;;;;;;;14.82;77.16;100566.09;4743955;30;20387;-81
2022/04/26 18:59:42;;;;;;;;;;;;;;;14.90;77.47;100567.06;4736045;30;19926;-81
2022/04/26 19:02:26;;;;;;;;;;;;;;;15.02;77.00;100575.25;4717050;30;19923;-79
2022/04/26 19:05:11;;;;;;;;;;;;;;;15.11;75.88;100575.09;4724000;30;19927;-80
2022/04/26 19:07:56;;;;;;;;;;;;;;;15.06;75.82;100581.63;4722611;30;19935;-79
2022/04/26 19:13:44;;;;;;;;;;;;;;;14.87;76.41;100589.69;4722561;30;19923;-80